createdAt,value
2019-05-29T00:46:58.640Z,9.10
2019-05-29T00:49:38.670Z,9.10
2019-05-29T02:09:20.166Z,8.10
2019-05-29T02:36:17.943Z,7.70
2019-05-29T02:38:56.728Z,7.60
2019-05-29T02:41:34.740Z,7.60
2019-05-29T02:44:14.480Z,7.60
2019-05-29T02:52:56.192Z,7.50
2019-05-29T02:55:45.572Z,7.50
2019-05-29T03:01:23.995Z,7.50
2019-05-29T03:14:58.443Z,7.40
2019-05-29T03:17:34.158Z,7.40
2019-05-29T03:20:17.094Z,7.40
2019-05-29T03:22:58.067Z,7.30
2019-05-29T03:28:44.747Z,7.40
2019-05-29T03:37:14.742Z,7.40
2019-05-29T03:39:49.315Z,7.40
2019-05-29T03:45:54.386Z,7.30
2019-05-29T03:48:49.714Z,7.30
2019-05-29T03:51:32.600Z,7.30
2019-05-29T03:54:10.471Z,7.30
2019-05-29T04:00:07.260Z,7.30
2019-05-29T04:02:44.195Z,7.30
2019-05-29T04:14:16.887Z,7.30
2019-05-29T04:20:08.399Z,7.30
2019-05-29T04:25:54.480Z,7.40
2019-05-29T04:28:43.342Z,7.30
2019-05-29T04:34:45.254Z,7.40
2019-05-29T04:37:34.310Z,7.40
2019-05-29T04:40:14.982Z,7.40
2019-05-29T04:43:04.256Z,7.40
2019-05-29T04:48:51.971Z,7.50
2019-05-29T04:51:31.084Z,7.60
2019-05-29T04:54:15.797Z,7.60
2019-05-29T04:56:51.503Z,7.60
2019-05-29T04:59:40.159Z,7.70
2019-05-29T05:02:27.527Z,7.70
2019-05-29T05:28:20.831Z,8.40
2019-05-29T05:31:03.294Z,8.60
2019-05-29T05:39:30.785Z,9.20
2019-05-29T05:42:17.756Z,9.50
2019-05-29T05:50:15.100Z,10.20
2019-05-29T05:59:27.601Z,11.00
2019-05-29T06:05:22.314Z,11.50
2019-05-29T06:22:49.826Z,13.00
2019-05-29T06:25:30.147Z,13.00
2019-05-29T06:28:15.630Z,13.30
2019-05-29T06:30:53.894Z,13.40
2019-05-29T06:33:35.834Z,13.60
2019-05-29T06:36:27.829Z,13.70
2019-05-29T06:38:59.294Z,14.00
2019-05-29T06:41:30.335Z,14.00
2019-05-29T06:44:00.639Z,14.30
2019-05-29T06:46:31.338Z,14.40
2019-05-29T06:49:01.671Z,14.80
2019-05-29T06:51:35.170Z,14.80
2019-05-29T06:54:05.167Z,15.10
2019-05-29T06:56:35.646Z,15.30
2019-05-29T06:59:07.494Z,15.50
2019-05-29T07:01:45.163Z,15.60
2019-05-29T07:04:14.989Z,15.80
2019-05-29T07:06:48.074Z,15.80
2019-05-29T07:09:23.647Z,15.90
2019-05-29T07:11:55.290Z,16.20
2019-05-29T07:14:34.420Z,16.10
2019-05-29T07:17:04.507Z,16.30
2019-05-29T07:19:49.081Z,16.40
2019-05-29T07:22:08.230Z,16.30
2019-05-29T07:24:39.017Z,16.50
2019-05-29T07:27:13.526Z,16.50
2019-05-29T07:29:45.250Z,16.70
2019-05-29T07:32:16.543Z,17.10
2019-05-29T07:35:03.846Z,17.40
2019-05-29T07:37:32.406Z,17.40
2019-05-29T07:40:09.205Z,17.60
2019-05-29T07:42:41.859Z,17.80
2019-05-29T07:45:25.275Z,17.60
2019-05-29T07:47:55.160Z,17.80
2019-05-29T07:50:27.211Z,18.00
2019-05-29T07:52:59.170Z,18.10
2019-05-29T07:55:30.606Z,18.10
2019-05-29T07:58:10.783Z,18.00
2019-05-29T08:01:06.789Z,18.10
2019-05-29T08:03:16.295Z,17.80
2019-05-29T08:06:05.737Z,17.80
2019-05-29T08:08:53.516Z,18.20
2019-05-29T08:17:52.345Z,19.40
2019-05-29T08:26:40.655Z,19.90
2019-05-29T08:29:16.331Z,19.60
2019-05-29T08:31:57.787Z,19.70
2019-05-29T08:37:31.314Z,19.70
2019-05-29T08:40:10.079Z,19.80
2019-05-29T08:42:51.439Z,20.00
2019-05-29T08:45:33.698Z,20.30
2019-05-29T08:48:13.408Z,20.10
2019-05-29T08:51:01.936Z,20.20
2019-05-29T08:53:59.547Z,20.30
2019-05-29T08:56:34.950Z,19.80
2019-05-29T08:59:07.493Z,20.10
2019-05-29T09:01:43.131Z,20.30
2019-05-29T09:04:13.275Z,19.80
2019-05-29T09:06:44.479Z,19.80
2019-05-29T09:09:19.267Z,19.60
2019-05-29T09:11:47.617Z,20.00
2019-05-29T09:14:25.359Z,20.20
2019-05-29T09:17:03.903Z,20.50
2019-05-29T09:19:40.932Z,20.80
2019-05-29T09:22:12.122Z,20.60
2019-05-29T09:24:59.101Z,20.80
2019-05-29T09:27:43.256Z,20.40
2019-05-29T09:30:09.083Z,20.20
2019-05-29T09:32:50.487Z,20.40
2019-05-29T09:35:26.092Z,20.80
2019-05-29T09:38:15.711Z,20.50
2019-05-29T09:40:53.025Z,20.30
2019-05-29T09:43:29.975Z,20.60
2019-05-29T09:46:02.191Z,20.30
2019-05-29T09:48:52.070Z,20.60
2019-05-29T10:22:51.734Z,19.80
2019-05-29T10:31:07.918Z,19.80
2019-05-29T10:34:09.893Z,20.00
2019-05-29T10:37:22.155Z,19.90
2019-05-29T10:39:54.423Z,19.70
2019-05-29T11:15:58.884Z,19.40
2019-05-29T11:37:31.945Z,19.00
2019-05-29T11:40:18.889Z,19.00
2019-05-29T11:53:47.716Z,19.00
2019-05-29T11:59:14.166Z,18.80
2019-05-29T12:01:50.815Z,19.10
2019-05-29T12:07:07.030Z,19.10
2019-05-29T12:09:38.248Z,19.10
2019-05-29T12:12:25.712Z,19.30
2019-05-29T12:18:19.041Z,19.30
2019-05-29T12:35:40.127Z,20.20
2019-05-29T12:38:36.650Z,20.20
2019-05-29T13:03:45.371Z,19.70
2019-05-29T13:30:21.530Z,20.20
2019-05-29T13:36:09.734Z,20.50
2019-05-29T13:45:17.069Z,20.30
2019-05-29T14:03:32.732Z,20.50
2019-05-29T14:14:25.816Z,20.20
2019-05-29T14:29:28.595Z,20.20
2019-05-29T16:15:20.469Z,20.10
2019-05-29T16:18:00.515Z,20.10
2019-05-29T16:23:35.187Z,20.10
2019-05-29T16:26:04.686Z,19.90
2019-05-29T16:28:58.427Z,19.90
2019-05-29T16:31:32.633Z,19.90
2019-05-29T16:34:18.863Z,19.90
2019-05-29T16:36:57.481Z,19.90
2019-05-29T16:54:02.214Z,19.70
2019-05-29T16:59:44.817Z,19.70
2019-05-29T17:02:21.910Z,19.80
2019-05-29T17:05:15.794Z,19.90
2019-05-29T17:35:44.287Z,19.70
2019-05-29T20:56:38.083Z,16.70
2019-05-29T21:39:30.585Z,16.70
2019-05-29T21:42:18.455Z,16.60
2019-05-29T22:57:02.056Z,16.20
2019-05-29T23:02:38.504Z,16.20
2019-05-29T23:08:18.527Z,16.10
2019-05-29T23:10:56.891Z,16.20
2019-05-29T23:16:48.711Z,16.10
2019-05-29T23:19:22.575Z,16.10
2019-05-29T23:22:04.649Z,16.10
2019-05-29T23:24:52.714Z,16.10
2019-05-29T23:27:34.153Z,16.10
2019-05-29T23:30:11.701Z,16.10
2019-05-29T23:32:49.505Z,16.10
2019-05-29T23:35:27.359Z,16.10
2019-05-29T23:38:05.139Z,16.10
2019-05-29T23:40:42.883Z,16.00
2019-05-29T23:43:23.265Z,16.10
2019-05-29T23:52:08.063Z,15.90
2019-05-29T23:55:11.219Z,15.90
2019-05-29T23:58:13.104Z,15.90
